Portada
METAR-TAF:

METAR-TAF

Aeroports :

Siem Reap, Cambodja

latitud: 13-22N, longitud: 103-51E, altitud: 15 m

Observació

L'informe es va fer fa 21 minuts, a les 22:30 UTC
Vent calma
Temperatura
Pressió 1012 hPa
Visibilitat: 9000 m
Escasses núvols a una alçada de 1700 ft

METAR: VDSR 112230Z 00000KT 9000 FEW017 18A/18 Q1012

Hora: 05:51 (22:51 UTC)

Pronòstic

L'informe es va fer fa 5 hores i 51 minuts, a les 17:00 UTC
Pronòstic vàlid del 11 a les 18 UTC al 12 a les 12 UTC
Vent 6 kt del Nord
Visibilitat 10 km o més
Núvols disperses a una alçada de 1700 ft

TAF: VDSR 111700Z 1118/1212 36006KT 9999 SCT017

Observacions i pronòstics meteorològics de més de 4000 aeroports (METAR i TAF).

Les estacions disponibles són els punts grocs i vermells al mapa.

Posi el ratolí al punt desitjat per veure el nom de l'estació.

Feu clic per veure les observacions i els pronòstics meteorològics.

Per canviar el mapa: feu clic els botons verds amb una creu de color negre per apropar; al botó verd amb un guió per allunyar la imatge; o en les fletxes verdes per a mapes adjacents.


METAR-TAF: